createdAt,value
2023-04-29T00:02:12.460Z,99.70
2023-04-29T00:04:41.330Z,99.30
2023-04-29T00:07:10.437Z,98.90
2023-04-29T00:09:39.631Z,98.90
2023-04-29T00:12:08.303Z,98.70
2023-04-29T00:14:37.016Z,98.40
2023-04-29T00:17:05.910Z,98.50
2023-04-29T00:19:34.685Z,98.10
2023-04-29T00:22:03.571Z,98.20
2023-04-29T00:24:32.140Z,98.50
2023-04-29T00:27:00.836Z,98.70
2023-04-29T00:29:29.739Z,98.10
2023-04-29T00:32:01.306Z,98.60
2023-04-29T00:34:29.967Z,98.30
2023-04-29T00:36:58.606Z,98.00
2023-04-29T00:39:29.702Z,98.30
2023-04-29T00:41:58.390Z,98.40
2023-04-29T00:44:27.113Z,98.30
2023-04-29T00:46:55.802Z,98.00
2023-04-29T00:49:24.529Z,98.10
2023-04-29T00:51:53.384Z,98.10
2023-04-29T00:54:22.700Z,98.20
2023-04-29T00:56:52.405Z,98.20
2023-04-29T00:59:21.839Z,98.10
2023-04-29T01:01:50.537Z,98.30
2023-04-29T01:04:19.728Z,98.30
2023-04-29T01:07:17.938Z,98.10
2023-04-29T01:10:02.350Z,97.80
2023-04-29T01:13:01.599Z,98.00
2023-04-29T01:15:39.358Z,97.80
2023-04-29T01:18:21.647Z,97.50
2023-04-29T01:20:50.916Z,97.20
2023-04-29T01:23:19.546Z,97.30
2023-04-29T01:25:49.875Z,97.40
2023-04-29T01:28:47.662Z,97.30
2023-04-29T01:31:40.121Z,97.00
2023-04-29T01:34:35.433Z,96.90
2023-04-29T01:37:24.145Z,96.90
2023-04-29T01:40:20.307Z,96.80
2023-04-29T01:43:12.762Z,96.50
2023-04-29T01:45:42.868Z,96.60
2023-04-29T01:48:11.692Z,96.50
2023-04-29T01:50:40.411Z,96.40
2023-04-29T01:53:09.273Z,96.70
2023-04-29T01:55:38.054Z,96.40
2023-04-29T01:58:06.690Z,96.00
2023-04-29T02:00:35.436Z,96.00
2023-04-29T02:03:04.516Z,95.90
2023-04-29T02:05:35.023Z,95.90
2023-04-29T02:08:04.203Z,95.90
2023-04-29T02:10:32.903Z,96.10
2023-04-29T02:13:02.491Z,96.20
2023-04-29T02:15:31.279Z,96.00
2023-04-29T02:18:00.159Z,95.50
2023-04-29T02:20:29.061Z,95.20
2023-04-29T02:22:57.885Z,95.20
2023-04-29T02:25:26.561Z,94.70
2023-04-29T02:27:55.267Z,95.30
2023-04-29T02:30:23.992Z,95.10
2023-04-29T02:32:54.050Z,94.70
2023-04-29T02:35:22.970Z,94.90
2023-04-29T02:37:51.655Z,94.40
2023-04-29T02:40:20.398Z,94.20
2023-04-29T02:42:49.141Z,94.20
2023-04-29T02:45:18.334Z,94.30
2023-04-29T02:47:47.068Z,94.20
2023-04-29T02:50:15.826Z,94.10
2023-04-29T02:52:44.432Z,94.20
2023-04-29T02:55:13.050Z,93.80
2023-04-29T02:57:42.179Z,93.40
2023-04-29T03:00:11.539Z,92.90
2023-04-29T03:02:40.271Z,92.50
2023-04-29T03:05:09.333Z,92.40
2023-04-29T03:07:38.123Z,92.70
2023-04-29T03:10:07.514Z,92.90
2023-04-29T03:12:36.304Z,92.60
2023-04-29T03:15:06.173Z,92.10
2023-04-29T03:17:35.677Z,92.10
2023-04-29T03:20:05.815Z,92.50
2023-04-29T03:22:34.768Z,92.30
2023-04-29T03:25:03.604Z,92.10
2023-04-29T03:27:32.233Z,92.80
2023-04-29T03:30:01.046Z,92.70
2023-04-29T03:32:29.730Z,91.90
2023-04-29T03:34:58.622Z,91.80
2023-04-29T03:37:27.374Z,92.30
2023-04-29T03:39:56.125Z,91.60
2023-04-29T03:42:24.746Z,91.70
2023-04-29T03:44:53.342Z,91.20
2023-04-29T03:47:21.996Z,91.80
2023-04-29T03:49:50.996Z,90.70
2023-04-29T03:52:19.882Z,91.00
2023-04-29T03:54:48.477Z,89.70
2023-04-29T03:57:17.067Z,90.10
2023-04-29T03:59:46.518Z,89.60
2023-04-29T04:02:15.230Z,90.10
2023-04-29T04:04:44.330Z,86.70
2023-04-29T04:07:13.250Z,90.10
2023-04-29T04:09:42.087Z,90.00
2023-04-29T04:12:10.740Z,90.00
2023-04-29T04:14:39.402Z,86.00
2023-04-29T04:17:08.633Z,85.30
2023-04-29T04:19:37.406Z,88.60
2023-04-29T04:22:06.378Z,89.00
2023-04-29T04:24:35.041Z,88.50
2023-04-29T04:27:03.638Z,85.10
2023-04-29T04:29:32.237Z,88.00
2023-04-29T04:32:01.166Z,86.80
2023-04-29T04:34:30.088Z,87.30
2023-04-29T04:36:58.839Z,88.30
2023-04-29T04:39:27.903Z,84.80
2023-04-29T04:41:56.533Z,86.30
2023-04-29T04:44:25.283Z,83.60
2023-04-29T04:46:53.909Z,83.60
2023-04-29T04:49:22.619Z,82.80
2023-04-29T04:51:51.414Z,83.70
2023-04-29T04:54:20.159Z,86.70
2023-04-29T04:56:49.475Z,82.60
2023-04-29T04:59:18.151Z,83.10
2023-04-29T05:01:47.138Z,83.00
2023-04-29T05:04:16.771Z,81.80
2023-04-29T05:06:47.714Z,84.20
2023-04-29T05:09:16.588Z,85.70
2023-04-29T05:11:45.225Z,84.70
2023-04-29T05:14:13.937Z,81.10
2023-04-29T05:16:42.689Z,85.10
2023-04-29T05:19:11.412Z,85.10
2023-04-29T05:21:40.102Z,80.90
2023-04-29T05:24:09.459Z,81.10
2023-04-29T05:26:39.138Z,80.30
2023-04-29T05:29:07.897Z,80.70
2023-04-29T05:31:36.618Z,81.20
2023-04-29T05:34:05.607Z,80.90
2023-04-29T05:36:34.258Z,81.50
2023-04-29T05:39:02.870Z,82.10
2023-04-29T05:41:31.507Z,80.20
2023-04-29T05:44:00.150Z,81.10
2023-04-29T05:46:28.820Z,79.80
2023-04-29T05:48:57.445Z,78.90
2023-04-29T05:51:26.186Z,81.40
2023-04-29T05:53:55.106Z,82.20
2023-04-29T05:56:24.434Z,82.30
2023-04-29T05:58:53.129Z,77.90
2023-04-29T06:01:21.718Z,81.50
2023-04-29T06:03:50.637Z,79.50
2023-04-29T06:06:19.763Z,76.70
2023-04-29T06:08:48.484Z,75.70
2023-04-29T06:11:17.211Z,75.30
2023-04-29T06:13:45.820Z,74.40
2023-04-29T06:16:14.453Z,75.90
2023-04-29T06:18:43.097Z,77.80
2023-04-29T06:21:11.750Z,76.70
2023-04-29T06:23:40.385Z,78.50
2023-04-29T06:26:09.074Z,78.10
2023-04-29T06:28:38.005Z,80.10
2023-04-29T06:31:06.672Z,78.90
2023-04-29T06:33:35.659Z,78.10
2023-04-29T06:36:04.420Z,76.20
2023-04-29T06:38:33.065Z,76.30
2023-04-29T06:41:02.028Z,74.80
2023-04-29T06:43:31.007Z,75.20
2023-04-29T06:45:59.771Z,77.10
2023-04-29T06:48:29.007Z,78.60
2023-04-29T06:50:59.589Z,76.50
2023-04-29T06:53:28.288Z,73.60
2023-04-29T06:55:57.004Z,75.50
2023-04-29T06:58:25.629Z,74.40
2023-04-29T07:00:54.386Z,74.60
2023-04-29T07:03:23.876Z,76.10
2023-04-29T07:05:52.769Z,77.00
2023-04-29T07:08:21.494Z,75.30
2023-04-29T07:11:05.445Z,74.80
2023-04-29T07:13:34.310Z,76.20
2023-04-29T07:16:02.971Z,78.20
2023-04-29T07:18:31.824Z,78.60
2023-04-29T07:21:04.025Z,77.90
2023-04-29T07:23:32.683Z,76.50
2023-04-29T07:26:09.890Z,76.20
2023-04-29T07:28:38.539Z,78.10
2023-04-29T07:31:08.578Z,75.60
2023-04-29T07:33:37.640Z,76.10
2023-04-29T07:36:08.354Z,75.30
2023-04-29T07:38:37.917Z,76.20
2023-04-29T07:41:06.704Z,78.30
2023-04-29T07:43:35.479Z,76.60
2023-04-29T07:46:04.141Z,78.40
2023-04-29T07:48:32.863Z,78.30
2023-04-29T07:51:01.569Z,76.60
2023-04-29T07:53:30.392Z,76.90
2023-04-29T07:55:59.109Z,78.10
2023-04-29T07:58:30.003Z,78.30
2023-04-29T08:00:58.690Z,78.00
2023-04-29T08:03:29.290Z,78.60
2023-04-29T08:06:04.403Z,78.30
2023-04-29T08:08:33.574Z,76.60
2023-04-29T08:11:02.314Z,76.80
2023-04-29T08:13:31.048Z,77.30
2023-04-29T08:15:59.853Z,79.10
2023-04-29T08:18:28.936Z,78.00
2023-04-29T08:20:57.602Z,78.10
2023-04-29T08:23:26.392Z,77.30
2023-04-29T08:25:56.852Z,76.10
2023-04-29T08:28:25.715Z,75.70
2023-04-29T08:30:54.411Z,76.60
2023-04-29T08:33:23.463Z,74.90
2023-04-29T08:36:01.424Z,77.80
2023-04-29T08:38:30.220Z,77.70
2023-04-29T08:40:59.131Z,76.00
2023-04-29T08:43:28.394Z,75.30
2023-04-29T08:45:59.335Z,75.10
2023-04-29T08:48:29.961Z,75.90
2023-04-29T08:51:00.423Z,76.70
2023-04-29T08:53:29.174Z,75.40
2023-04-29T08:56:02.504Z,76.30
2023-04-29T08:58:35.436Z,76.10
2023-04-29T09:01:04.785Z,76.70
2023-04-29T09:03:58.070Z,76.30
2023-04-29T09:06:27.649Z,77.00
2023-04-29T09:08:56.402Z,77.50
2023-04-29T09:11:25.272Z,77.60
2023-04-29T09:13:59.486Z,76.80
2023-04-29T09:16:28.725Z,77.20
2023-04-29T09:18:58.513Z,77.10
2023-04-29T09:21:29.291Z,77.50
2023-04-29T09:24:00.925Z,77.80
2023-04-29T09:26:37.737Z,78.00
2023-04-29T09:29:11.036Z,77.80
2023-04-29T09:31:41.515Z,78.40
2023-04-29T09:34:10.299Z,78.60
2023-04-29T09:36:40.890Z,78.30
2023-04-29T09:39:13.517Z,78.30
2023-04-29T09:41:44.817Z,78.10
2023-04-29T09:44:13.496Z,77.60
2023-04-29T09:46:42.225Z,77.30
2023-04-29T09:49:32.291Z,77.70
2023-04-29T09:52:03.047Z,78.10
2023-04-29T09:54:33.673Z,78.40
2023-04-29T09:57:07.388Z,78.40
2023-04-29T09:59:38.580Z,79.30
2023-04-29T10:02:16.491Z,78.90
2023-04-29T10:04:48.153Z,79.30
2023-04-29T10:07:18.408Z,79.20
2023-04-29T10:09:48.925Z,79.40
2023-04-29T10:12:19.599Z,79.50
2023-04-29T10:15:14.825Z,79.40
2023-04-29T10:18:04.510Z,79.40
2023-04-29T10:20:34.134Z,80.30
2023-04-29T10:23:04.465Z,80.90
2023-04-29T10:25:34.941Z,81.60
2023-04-29T10:28:05.955Z,81.90
2023-04-29T10:30:35.299Z,82.30
2023-04-29T10:33:05.421Z,82.60
2023-04-29T10:35:34.764Z,82.70
2023-04-29T10:38:10.171Z,82.60
2023-04-29T10:40:46.676Z,82.70
2023-04-29T10:43:16.193Z,83.00
2023-04-29T10:45:44.969Z,83.00
2023-04-29T10:48:14.924Z,83.10
2023-04-29T10:50:51.989Z,83.10
2023-04-29T10:53:21.722Z,83.30
2023-04-29T10:55:59.462Z,83.80
2023-04-29T10:58:47.288Z,83.90
2023-04-29T11:01:17.996Z,84.40
2023-04-29T11:03:51.181Z,84.60
2023-04-29T11:06:19.955Z,84.70
2023-04-29T11:08:49.667Z,84.60
2023-04-29T11:11:18.364Z,85.50
2023-04-29T11:13:48.960Z,85.00
2023-04-29T11:16:17.706Z,85.40
2023-04-29T11:19:07.612Z,84.70
2023-04-29T11:21:38.272Z,85.20
2023-04-29T11:24:08.178Z,84.90
2023-04-29T11:26:37.525Z,84.80
2023-04-29T11:29:11.498Z,84.90
2023-04-29T11:31:40.487Z,85.70
2023-04-29T11:34:09.258Z,85.40
2023-04-29T11:36:38.137Z,85.40
2023-04-29T11:39:06.945Z,85.50
2023-04-29T11:41:36.755Z,85.20
2023-04-29T11:44:07.729Z,85.20
2023-04-29T11:46:36.528Z,85.30
2023-04-29T11:49:05.364Z,85.20
2023-04-29T11:51:34.210Z,84.80
2023-04-29T11:54:02.970Z,84.40
2023-04-29T11:56:31.795Z,84.30
2023-04-29T11:59:02.242Z,83.90
2023-04-29T12:01:31.049Z,83.70
2023-04-29T12:04:01.072Z,83.30
2023-04-29T12:06:31.173Z,83.10
2023-04-29T12:09:02.016Z,83.00
2023-04-29T12:11:30.711Z,82.80
2023-04-29T12:14:02.044Z,83.10
2023-04-29T12:16:31.380Z,82.70
2023-04-29T12:19:01.629Z,82.90
2023-04-29T12:21:30.384Z,82.90
2023-04-29T12:24:02.342Z,82.30
2023-04-29T12:26:33.011Z,82.30
2023-04-29T12:29:01.740Z,82.20
2023-04-29T12:31:37.801Z,82.70
2023-04-29T12:34:08.424Z,82.90
2023-04-29T12:36:38.804Z,82.80
2023-04-29T12:39:11.263Z,82.90
2023-04-29T12:41:42.792Z,83.20
2023-04-29T12:44:11.985Z,83.30
2023-04-29T12:46:42.336Z,83.20
2023-04-29T12:49:11.081Z,83.00
2023-04-29T12:51:39.702Z,82.80
2023-04-29T12:54:08.604Z,83.00
2023-04-29T12:56:37.674Z,83.10
2023-04-29T12:59:08.726Z,82.80
2023-04-29T13:01:38.318Z,82.30
2023-04-29T13:04:09.796Z,82.00
2023-04-29T13:06:40.540Z,82.20
2023-04-29T13:09:18.568Z,83.00
2023-04-29T13:11:48.261Z,82.40
2023-04-29T13:14:17.861Z,82.80
2023-04-29T13:16:47.143Z,82.90
2023-04-29T13:19:32.108Z,82.60
2023-04-29T13:22:04.490Z,82.50
2023-04-29T13:24:34.146Z,82.60
2023-04-29T13:27:03.993Z,82.80
2023-04-29T13:29:32.952Z,82.80
2023-04-29T13:32:01.854Z,82.70
2023-04-29T13:34:30.551Z,82.90
2023-04-29T13:36:59.218Z,83.00
2023-04-29T13:39:27.825Z,83.00
2023-04-29T13:41:58.926Z,83.30
2023-04-29T13:44:35.709Z,83.30
2023-04-29T13:47:08.355Z,83.50
2023-04-29T13:50:09.929Z,83.70
2023-04-29T13:53:10.471Z,83.80
2023-04-29T13:56:01.692Z,84.20
2023-04-29T14:00:55.104Z,84.10
2023-04-29T14:03:24.129Z,84.20
2023-04-29T14:05:53.372Z,84.30
2023-04-29T14:08:22.065Z,84.70
2023-04-29T14:10:50.813Z,85.00
2023-04-29T14:13:19.523Z,84.90
2023-04-29T14:15:48.466Z,85.30
2023-04-29T14:18:17.245Z,85.30
2023-04-29T14:20:46.064Z,85.10
2023-04-29T14:23:14.715Z,85.00
2023-04-29T14:25:43.595Z,84.70
2023-04-29T14:28:12.408Z,84.60
2023-04-29T14:30:42.568Z,84.20
2023-04-29T14:33:11.799Z,84.00
2023-04-29T14:35:40.482Z,84.10
2023-04-29T14:38:09.589Z,84.10
2023-04-29T14:40:40.094Z,84.10
2023-04-29T14:43:08.895Z,84.40
2023-04-29T14:45:38.579Z,84.30
2023-04-29T14:48:07.349Z,84.20
2023-04-29T14:50:35.967Z,84.10
2023-04-29T14:53:05.245Z,84.20
2023-04-29T14:55:34.078Z,84.20
2023-04-29T14:58:05.859Z,84.30
2023-04-29T15:00:34.484Z,84.30
2023-04-29T15:03:04.110Z,84.30
2023-04-29T15:05:32.882Z,84.30
2023-04-29T15:08:02.581Z,84.10
2023-04-29T15:10:31.939Z,84.10
2023-04-29T15:13:00.585Z,84.30
2023-04-29T15:15:29.851Z,84.30
2023-04-29T15:17:58.482Z,84.10
2023-04-29T15:20:27.331Z,84.10
2023-04-29T15:22:56.054Z,84.40
2023-04-29T15:25:26.594Z,84.50
2023-04-29T15:27:56.747Z,84.40
2023-04-29T15:30:25.449Z,84.40
2023-04-29T15:32:54.698Z,84.40
2023-04-29T15:35:23.707Z,84.50
2023-04-29T15:37:52.377Z,84.50
2023-04-29T15:40:21.175Z,84.70
2023-04-29T15:42:49.775Z,85.20
2023-04-29T15:45:18.480Z,85.10
2023-04-29T15:47:47.849Z,85.30
2023-04-29T15:50:16.491Z,85.30
2023-04-29T15:52:45.155Z,85.50
2023-04-29T15:55:13.904Z,85.60
2023-04-29T15:57:43.635Z,85.70
2023-04-29T16:00:13.434Z,86.90
2023-04-29T16:02:42.081Z,87.50
2023-04-29T16:05:11.004Z,86.70
2023-04-29T16:07:39.664Z,86.70
2023-04-29T16:10:08.659Z,86.90
2023-04-29T16:12:37.289Z,87.00
2023-04-29T16:15:07.154Z,87.10
2023-04-29T16:17:35.876Z,87.40
2023-04-29T16:20:04.952Z,87.10
2023-04-29T16:22:33.600Z,88.70
2023-04-29T16:25:02.676Z,87.90
2023-04-29T16:27:31.717Z,88.60
2023-04-29T16:30:00.847Z,88.70
2023-04-29T16:32:29.997Z,90.20
2023-04-29T16:35:00.830Z,90.70
2023-04-29T16:37:30.267Z,90.10
2023-04-29T16:39:59.239Z,90.50
2023-04-29T16:42:28.044Z,90.70
2023-04-29T16:44:56.877Z,91.80
2023-04-29T16:47:26.430Z,91.90
2023-04-29T16:49:56.347Z,92.40
2023-04-29T16:52:25.216Z,91.50
2023-04-29T16:54:54.151Z,93.00
2023-04-29T16:57:23.060Z,92.40
2023-04-29T17:01:13.081Z,93.70
2023-04-29T17:03:43.049Z,94.20
2023-04-29T17:06:12.327Z,94.80
2023-04-29T17:08:41.406Z,95.20
2023-04-29T17:11:10.101Z,95.50
2023-04-29T17:13:38.793Z,95.70
2023-04-29T17:16:08.555Z,96.10
2023-04-29T17:18:38.360Z,95.90
2023-04-29T17:21:07.162Z,94.20
2023-04-29T17:23:36.257Z,94.20
2023-04-29T17:26:06.099Z,94.20
2023-04-29T17:28:34.766Z,94.40
2023-04-29T17:31:03.433Z,94.00
2023-04-29T17:33:36.247Z,93.90
2023-04-29T17:36:06.534Z,94.10
2023-04-29T17:38:35.284Z,93.80
2023-04-29T17:41:04.610Z,94.00
2023-04-29T17:43:34.718Z,94.00
2023-04-29T17:46:03.374Z,94.50
2023-04-29T17:48:33.148Z,94.30
2023-04-29T17:51:01.863Z,94.80
2023-04-29T17:53:30.666Z,94.40
2023-04-29T17:56:00.265Z,94.70
2023-04-29T17:58:29.824Z,96.10
2023-04-29T18:00:58.708Z,96.40
2023-04-29T18:03:28.214Z,96.00
2023-04-29T18:05:56.967Z,96.10
2023-04-29T18:08:25.674Z,95.60
2023-04-29T18:10:55.444Z,95.50
2023-04-29T18:13:26.557Z,95.60
2023-04-29T18:15:56.542Z,96.20
2023-04-29T18:18:25.351Z,96.40
2023-04-29T18:20:54.016Z,96.70
2023-04-29T18:23:23.577Z,98.30
2023-04-29T18:25:52.219Z,97.20
2023-04-29T18:28:25.334Z,98.70
2023-04-29T18:30:54.520Z,99.40
2023-04-29T18:33:24.214Z,99.60
2023-04-29T18:35:53.026Z,99.90
2023-04-29T18:38:22.025Z,99.30
2023-04-29T18:40:50.778Z,99.40
2023-04-29T18:43:25.234Z,99.90
2023-04-29T18:45:53.922Z,99.90
2023-04-29T18:48:33.584Z,99.90
2023-04-29T18:51:05.117Z,99.90
2023-04-29T18:56:28.507Z,99.90
2023-04-29T18:58:57.550Z,99.90
2023-04-29T19:01:26.758Z,99.90
2023-04-29T19:03:56.141Z,99.90
2023-04-29T19:06:24.804Z,99.90
2023-04-29T19:08:53.529Z,99.90
2023-04-29T19:11:23.433Z,99.90
2023-04-29T19:13:52.087Z,99.90
2023-04-29T19:16:24.132Z,99.90
2023-04-29T19:18:53.773Z,99.90
2023-04-29T19:21:23.903Z,99.90
2023-04-29T19:23:53.223Z,99.90
2023-04-29T19:26:22.160Z,99.90
2023-04-29T19:28:50.762Z,99.90
2023-04-29T19:31:19.427Z,99.90
2023-04-29T19:33:49.012Z,99.90
2023-04-29T19:36:20.729Z,99.90
2023-04-29T19:38:50.171Z,99.90
2023-04-29T19:41:21.744Z,99.90
2023-04-29T19:43:50.384Z,99.90
2023-04-29T19:46:19.059Z,99.90
2023-04-29T19:48:47.801Z,99.90
2023-04-29T19:51:16.871Z,99.90
2023-04-29T19:53:57.464Z,99.90
2023-04-29T19:56:32.038Z,99.90
2023-04-29T19:59:00.790Z,99.90
2023-04-29T20:01:29.496Z,99.90
2023-04-29T20:03:58.398Z,99.90
2023-04-29T20:06:28.085Z,99.90
2023-04-29T20:08:57.072Z,99.90
2023-04-29T20:11:25.884Z,99.90
2023-04-29T20:13:54.714Z,99.90
2023-04-29T20:16:24.511Z,99.90
2023-04-29T20:18:53.328Z,99.90
2023-04-29T20:21:22.057Z,99.90
2023-04-29T20:23:50.884Z,99.90
2023-04-29T20:26:19.946Z,99.90
2023-04-29T20:28:58.160Z,99.90
2023-04-29T20:31:27.082Z,99.90
2023-04-29T20:34:03.989Z,99.90
2023-04-29T20:36:32.914Z,99.90
2023-04-29T20:39:07.555Z,99.90
2023-04-29T20:41:36.384Z,99.90
2023-04-29T20:44:05.456Z,99.90
2023-04-29T20:46:34.176Z,99.90
2023-04-29T20:49:04.129Z,99.90
2023-04-29T20:51:33.819Z,99.90
2023-04-29T20:54:02.621Z,99.90
2023-04-29T20:56:31.911Z,99.90
2023-04-29T20:59:00.736Z,99.90
2023-04-29T21:04:11.411Z,99.90
2023-04-29T21:06:40.404Z,99.90
2023-04-29T21:09:19.512Z,99.90
2023-04-29T21:11:48.643Z,99.90
2023-04-29T21:14:17.345Z,99.90
2023-04-29T21:16:46.075Z,99.90
2023-04-29T21:19:14.874Z,99.90
2023-04-29T21:21:43.682Z,99.90
2023-04-29T21:24:21.371Z,99.90
2023-04-29T21:26:51.395Z,99.90
2023-04-29T21:29:21.147Z,99.90
2023-04-29T21:31:49.827Z,99.90
2023-04-29T21:34:18.688Z,99.90
2023-04-29T21:36:47.316Z,99.90
2023-04-29T21:39:16.044Z,99.90
2023-04-29T21:41:47.132Z,99.90
2023-04-29T21:44:16.608Z,99.90
2023-04-29T21:46:54.790Z,99.90
2023-04-29T21:49:30.672Z,99.90
2023-04-29T21:52:00.603Z,99.90
2023-04-29T21:54:34.572Z,99.90
2023-04-29T21:57:03.939Z,99.90
2023-04-29T21:59:35.697Z,99.90
2023-04-29T22:02:15.233Z,99.90
2023-04-29T22:04:43.934Z,99.90
2023-04-29T22:07:12.609Z,99.90
2023-04-29T22:09:41.357Z,99.90
2023-04-29T22:12:10.148Z,99.90
2023-04-29T22:14:38.924Z,99.90
2023-04-29T22:17:08.060Z,99.90
2023-04-29T22:19:38.324Z,99.90
2023-04-29T22:22:07.545Z,99.90
2023-04-29T22:24:36.320Z,99.90
2023-04-29T22:27:05.009Z,99.90
2023-04-29T22:29:33.749Z,99.90
2023-04-29T22:32:02.574Z,99.90
2023-04-29T22:34:31.547Z,99.90
2023-04-29T22:37:01.047Z,99.90
2023-04-29T22:39:29.741Z,99.90
2023-04-29T22:41:58.406Z,99.90
2023-04-29T22:44:27.203Z,99.90
2023-04-29T22:46:55.945Z,99.90
2023-04-29T22:49:26.603Z,99.90
2023-04-29T22:51:55.321Z,99.90
2023-04-29T22:54:23.927Z,99.90
2023-04-29T22:56:52.521Z,99.90
2023-04-29T22:59:21.969Z,99.90
2023-04-29T23:01:50.618Z,99.90
2023-04-29T23:04:30.229Z,99.90
2023-04-29T23:07:08.665Z,99.90
2023-04-29T23:09:37.462Z,99.90
2023-04-29T23:12:06.293Z,99.90
2023-04-29T23:14:34.896Z,99.90
2023-04-29T23:17:03.561Z,99.90
2023-04-29T23:19:32.165Z,99.90
2023-04-29T23:22:00.857Z,99.90
2023-04-29T23:24:29.686Z,99.90
2023-04-29T23:27:04.382Z,99.90
2023-04-29T23:29:35.287Z,99.90
2023-04-29T23:32:04.210Z,99.90
2023-04-29T23:34:32.883Z,99.90
2023-04-29T23:37:02.332Z,99.90
2023-04-29T23:39:30.963Z,99.90
2023-04-29T23:41:59.557Z,99.90
2023-04-29T23:44:32.353Z,99.90
2023-04-29T23:47:00.625Z,99.90
2023-04-29T23:49:29.627Z,99.90
2023-04-29T23:51:58.250Z,99.90
2023-04-29T23:54:26.847Z,99.90
2023-04-29T23:56:59.256Z,99.90
2023-04-29T23:59:35.437Z,99.90
